Time;durP1;ratioP1;P1;durP2;ratioP2;P2;SDS_P1;SDS_P2;PMS_P1;PMS_P2;Temp;Humidity;BMP_temperature;BMP_pressure;BME280_temperature;BME280_humidity;BME280_pressure;Samples;Min_cycle;Max_cycle;Signal;HPM_P1;HPM_P2
2021/09/08 00:01:08;;;;;;;14.93;7.68;;;;;;;8.65;81.75;91160.47;4900476;29;20032;-89
2021/09/08 00:03:33;;;;;;;12.35;7.22;;;;;;;8.58;81.43;91163.56;4932029;29;20028;-89
2021/09/08 00:05:58;;;;;;;12.55;7.43;;;;;;;8.68;81.33;91159.88;4916139;29;20035;-89
2021/09/08 00:08:24;;;;;;;11.18;7.65;;;;;;;8.70;82.37;91159.56;4916236;29;20032;-89
2021/09/08 00:10:50;;;;;;;13.88;8.27;;;;;;;8.51;82.21;91154.72;4916227;29;20028;-90
2021/09/08 00:13:15;;;;;;;15.23;8.05;;;;;;;8.54;82.61;91151.50;4900582;29;20035;-89
2021/09/08 00:15:40;;;;;;;12.55;7.65;;;;;;;8.41;82.33;91155.81;4916481;29;20088;-89
2021/09/08 00:18:06;;;;;;;12.70;7.88;;;;;;;8.41;82.53;91136.84;4915881;29;20020;-89
2021/09/08 00:20:31;;;;;;;13.25;8.80;;;;;;;8.53;82.15;91148.16;4932230;29;20032;-89
2021/09/08 00:22:57;;;;;;;12.52;8.25;;;;;;;8.44;82.24;91144.78;4914908;29;20027;-89
2021/09/08 00:25:22;;;;;;;13.32;8.38;;;;;;;8.35;81.66;91144.78;4894696;29;20036;-89
2021/09/08 00:27:48;;;;;;;13.80;8.40;;;;;;;8.38;82.54;91143.44;4915473;29;20032;-89
2021/09/08 00:30:13;;;;;;;15.82;8.48;;;;;;;8.36;83.23;91140.34;4914538;29;20040;-89
2021/09/08 00:32:39;;;;;;;14.10;8.57;;;;;;;8.33;83.88;91139.13;4898379;29;20027;-89
2021/09/08 00:35:05;;;;;;;14.00;8.73;;;;;;;8.32;82.83;91134.25;4898678;29;20404;-89
2021/09/08 00:37:31;;;;;;;12.93;8.30;;;;;;;8.31;82.75;91127.53;4914225;29;20111;-89
2021/09/08 00:39:56;;;;;;;12.57;8.13;;;;;;;8.46;82.81;91128.91;4914301;29;20116;-89
2021/09/08 00:42:21;;;;;;;12.65;8.38;;;;;;;8.31;82.08;91123.09;4914331;29;20027;-89
2021/09/08 00:44:47;;;;;;;11.88;7.78;;;;;;;8.25;82.84;91123.56;4898618;29;20638;-89
2021/09/08 00:47:13;;;;;;;12.00;8.20;;;;;;;8.20;82.74;91121.13;4914023;29;20031;-89
2021/09/08 00:49:38;;;;;;;11.63;7.95;;;;;;;8.19;83.54;91117.75;4898435;29;20110;-88
2021/09/08 00:52:04;;;;;;;14.25;8.50;;;;;;;8.19;83.07;91112.56;4898525;29;20028;-90
2021/09/08 00:54:30;;;;;;;13.48;8.10;;;;;;;8.22;82.15;91119.75;4914142;29;20067;-90
2021/09/08 00:56:55;;;;;;;14.38;7.68;;;;;;;8.33;81.50;91115.00;4898048;29;20028;-90
2021/09/08 00:59:21;;;;;;;12.40;8.23;;;;;;;8.38;82.10;91113.03;4898436;29;20035;-90
2021/09/08 01:01:47;;;;;;;13.80;8.38;;;;;;;8.16;82.65;91113.19;4899788;29;20028;-89
2021/09/08 01:04:14;;;;;;;13.98;8.63;;;;;;;8.18;84.46;91118.09;4902445;29;20165;-90
2021/09/08 01:06:40;;;;;;;14.48;8.32;;;;;;;8.04;84.36;91113.81;4902798;29;20056;-89
2021/09/08 01:09:05;;;;;;;13.85;9.10;;;;;;;8.09;84.67;91110.28;4918507;29;20106;-89
2021/09/08 01:11:31;;;;;;;13.05;8.98;;;;;;;8.01;84.56;91117.03;4918640;29;20031;-89
2021/09/08 01:13:56;;;;;;;14.30;8.05;;;;;;;8.04;85.51;91108.63;4918627;29;20032;-88
2021/09/08 01:16:21;;;;;;;11.73;7.88;;;;;;;8.12;84.59;91115.63;4901483;29;20188;-89
2021/09/08 01:18:47;;;;;;;16.52;8.48;;;;;;;8.10;84.49;91117.03;4916093;29;20020;-89
2021/09/08 01:21:13;;;;;;;11.75;7.90;;;;;;;8.16;83.66;91123.56;4917196;29;20028;-90
2021/09/08 01:23:38;;;;;;;14.10;7.88;;;;;;;8.03;83.96;91112.31;4891033;29;20548;-90
2021/09/08 01:26:04;;;;;;;14.15;9.05;;;;;;;8.13;82.93;91114.59;4917200;29;20032;-90
2021/09/08 01:28:29;;;;;;;12.25;8.15;;;;;;;7.95;83.17;91122.66;4901271;29;20024;-90
2021/09/08 01:30:55;;;;;;;13.77;8.73;;;;;;;7.72;83.91;91111.69;4934254;29;20032;-88
2021/09/08 01:33:21;;;;;;;12.80;8.35;;;;;;;7.76;83.63;91103.00;4903707;29;20392;-90
2021/09/08 01:35:46;;;;;;;12.35;7.28;;;;;;;7.80;84.00;91108.34;4903321;29;20067;-89
2021/09/08 01:38:12;;;;;;;13.30;8.25;;;;;;;7.79;83.99;91096.44;4903132;29;20377;-88
2021/09/08 01:40:37;;;;;;;12.25;7.80;;;;;;;7.89;83.44;91106.50;4934451;29;20024;-88
2021/09/08 01:43:03;;;;;;;11.75;7.30;;;;;;;7.82;83.03;91109.56;4934715;29;20060;-89
2021/09/08 01:45:28;;;;;;;13.52;7.70;;;;;;;7.73;83.93;91093.22;4904527;29;20404;-89
2021/09/08 01:47:54;;;;;;;12.38;8.18;;;;;;;7.68;83.63;91103.75;4934991;29;20028;-89
2021/09/08 01:50:20;;;;;;;11.00;7.35;;;;;;;7.65;83.13;91094.75;4918875;29;20032;-88
2021/09/08 01:52:45;;;;;;;13.55;8.38;;;;;;;7.64;83.99;91097.66;4933815;29;20024;-90
2021/09/08 01:55:11;;;;;;;13.38;8.05;;;;;;;7.65;83.78;91097.34;4902190;29;20028;-89
2021/09/08 01:57:36;;;;;;;13.32;7.78;;;;;;;7.62;84.07;91099.78;4968547;23;20070;-90
2021/09/08 02:00:03;;;;;;;13.15;7.38;;;;;;;7.53;84.25;91097.19;4958751;28;20019;-91
2021/09/08 02:02:29;;;;;;;12.43;7.22;;;;;;;7.46;84.03;91103.91;4942977;28;20106;-90
2021/09/08 02:04:54;;;;;;;13.38;8.38;;;;;;;7.49;84.82;91091.09;4958709;28;20048;-90
2021/09/08 02:07:19;;;;;;;17.90;9.07;;;;;;;7.59;84.84;91098.56;4965453;28;20023;-91
2021/09/08 02:09:45;;;;;;;17.17;8.90;;;;;;;7.58;84.37;91089.25;4939496;29;20050;-91
2021/09/08 02:12:10;;;;;;;12.80;7.22;;;;;;;7.52;84.24;91089.72;4923636;29;20031;-91
2021/09/08 02:14:36;;;;;;;12.88;8.30;;;;;;;7.54;84.37;91090.94;4954713;28;20027;-91
2021/09/08 02:17:01;;;;;;;13.15;8.05;;;;;;;7.55;84.33;91091.69;4939085;29;20395;-91
2021/09/08 02:19:27;;;;;;;13.65;8.13;;;;;;;7.49;84.24;91095.50;4956251;28;20487;-91
2021/09/08 02:21:52;;;;;;;14.10;8.00;;;;;;;7.54;84.98;91085.75;4939233;29;20035;-91
2021/09/08 02:24:17;;;;;;;12.55;7.57;;;;;;;7.48;84.45;91078.41;4923288;29;20019;-91
2021/09/08 02:26:43;;;;;;;12.18;7.82;;;;;;;7.40;85.71;91072.16;4923176;29;20027;-92
2021/09/08 02:29:12;;;;;;;15.55;8.07;;;;;;;7.42;84.90;91075.22;4938959;29;20479;-91
2021/09/08 02:31:37;;;;;;;11.95;7.78;;;;;;;7.63;84.90;91081.34;4955048;29;20031;-91
2021/09/08 02:34:02;;;;;;;12.77;8.10;;;;;;;7.58;84.24;91070.34;4939002;29;20117;-92
2021/09/08 02:36:28;;;;;;;13.70;7.75;;;;;;;7.51;84.49;91075.97;4938968;28;20364;-90
2021/09/08 02:38:53;;;;;;;12.77;7.68;;;;;;;7.63;83.76;91070.19;4938559;29;20050;-91
2021/09/08 02:41:19;;;;;;;13.60;8.68;;;;;;;7.61;84.18;91070.50;4923146;29;20027;-90
2021/09/08 02:43:44;;;;;;;13.73;8.05;;;;;;;7.51;84.99;91070.78;4922897;29;20027;-92
2021/09/08 02:46:09;;;;;;;12.82;8.02;;;;;;;7.38;84.62;91061.31;4938806;29;20113;-91
2021/09/08 02:48:35;;;;;;;13.75;7.95;;;;;;;7.40;84.12;91059.19;4922560;29;20019;-90
2021/09/08 02:51:01;;;;;;;12.13;7.35;;;;;;;7.33;84.45;91062.25;4922894;29;20086;-91
2021/09/08 02:53:26;;;;;;;11.48;7.65;;;;;;;7.36;84.56;91055.69;4964683;28;20020;-94
2021/09/08 02:55:52;;;;;;;12.68;8.02;;;;;;;7.18;85.31;91062.69;4963657;28;20043;-94
2021/09/08 02:58:17;;;;;;;11.82;7.65;;;;;;;7.13;85.44;91061.00;4960498;28;20042;-90
2021/09/08 03:00:43;;;;;;;13.20;7.72;;;;;;;7.23;84.81;91059.19;4938733;29;20030;-91
2021/09/08 03:03:08;;;;;;;13.57;7.30;;;;;;;7.33;84.01;91059.66;4954380;28;20035;-90
2021/09/08 03:05:34;;;;;;;14.80;8.20;;;;;;;7.19;84.82;91059.78;4935271;29;20034;-90
2021/09/08 03:07:59;;;;;;;11.48;7.97;;;;;;;7.35;84.68;91052.34;4919102;29;20039;-91
2021/09/08 03:10:25;;;;;;;11.77;6.90;;;;;;;7.14;84.63;91057.34;4919126;29;20031;-91
2021/09/08 03:12:50;;;;;;;13.43;8.07;;;;;;;7.19;85.08;91043.47;4934965;29;20027;-91
2021/09/08 03:15:15;;;;;;;11.75;7.70;;;;;;;7.10;84.94;91047.88;4934924;29;20035;-91
2021/09/08 03:17:41;;;;;;;12.52;7.75;;;;;;;7.12;85.46;91049.09;4934613;29;20027;-91
2021/09/08 03:20:07;;;;;;;11.30;6.97;;;;;;;7.09;85.31;91048.94;4951011;29;20035;-90
2021/09/08 03:22:32;;;;;;;12.55;7.97;;;;;;;7.06;85.88;91046.97;4934929;29;20031;-92
2021/09/08 03:24:58;;;;;;;15.77;7.95;;;;;;;7.00;84.83;91041.16;4935003;29;20023;-91
2021/09/08 03:27:23;;;;;;;13.43;7.90;;;;;;;7.08;85.35;91050.78;4934870;29;20503;-91
2021/09/08 03:29:49;;;;;;;10.93;7.30;;;;;;;7.27;85.38;91040.13;4950799;28;20035;-91
2021/09/08 03:32:14;;;;;;;12.98;7.00;;;;;;;7.19;85.60;91028.69;4934661;29;20027;-91
2021/09/08 03:34:40;;;;;;;12.98;7.35;;;;;;;7.09;85.41;91036.00;4918968;29;20039;-91
2021/09/08 03:37:05;;;;;;;15.35;8.90;;;;;;;7.09;85.60;91044.53;4950570;28;20039;-91
2021/09/08 03:39:30;;;;;;;12.40;7.90;;;;;;;7.22;85.33;91036.94;4934627;29;20030;-91
2021/09/08 03:41:56;;;;;;;17.60;7.80;;;;;;;7.14;85.16;91036.63;4934853;29;20021;-91
2021/09/08 03:44:21;;;;;;;11.88;7.75;;;;;;;7.05;85.05;91035.06;4918815;29;20078;-91
2021/09/08 03:46:47;;;;;;;14.60;7.60;;;;;;;7.00;85.26;91035.22;4934390;29;20098;-91
2021/09/08 03:49:12;;;;;;;14.50;8.07;;;;;;;6.87;85.41;91036.88;4934542;29;20028;-91
2021/09/08 03:51:37;;;;;;;13.15;8.13;;;;;;;6.81;86.21;91032.88;4918668;29;20027;-91
2021/09/08 03:54:03;;;;;;;12.98;8.07;;;;;;;6.77;86.09;91022.38;4934699;29;20079;-91
2021/09/08 03:56:28;;;;;;;12.35;8.25;;;;;;;6.89;85.93;91032.13;4934568;29;20027;-92
2021/09/08 03:58:54;;;;;;;13.70;9.02;;;;;;;7.07;86.56;91023.34;4918376;29;20062;-92
2021/09/08 04:01:19;;;;;;;14.98;9.05;;;;;;;6.89;87.17;91030.34;4934423;29;20024;-91
2021/09/08 04:03:48;;;;;;;12.98;8.70;;;;;;;6.82;87.16;91029.22;4934358;29;20034;-92
2021/09/08 04:06:14;;;;;;;14.85;8.57;;;;;;;6.88;85.76;91028.78;4918549;29;20098;-90
2021/09/08 04:08:40;;;;;;;11.55;7.82;;;;;;;7.04;85.84;91018.75;4934421;29;20102;-91
2021/09/08 04:11:05;;;;;;;13.77;7.63;;;;;;;7.05;85.06;91012.50;4934467;29;20034;-90
2021/09/08 04:13:30;;;;;;;16.00;8.93;;;;;;;6.96;85.91;91024.69;4934610;29;20480;-92
2021/09/08 04:15:56;;;;;;;14.98;8.88;;;;;;;7.02;86.44;91015.69;4950381;29;20499;-92
2021/09/08 04:18:21;;;;;;;14.23;7.75;;;;;;;6.90;86.30;91020.72;4934386;29;20488;-92
2021/09/08 04:20:47;;;;;;;14.88;8.25;;;;;;;6.98;86.61;91012.19;4934257;29;20051;-91
2021/09/08 04:23:12;;;;;;;13.88;9.05;;;;;;;6.98;86.74;91006.25;4934443;29;20032;-92
2021/09/08 04:25:37;;;;;;;13.63;9.00;;;;;;;6.92;86.54;91008.22;4934269;29;20031;-91
2021/09/08 04:28:04;;;;;;;13.88;9.00;;;;;;;6.85;86.43;91015.69;4934003;29;20031;-91
2021/09/08 04:30:29;;;;;;;17.23;8.45;;;;;;;6.88;87.00;91015.06;4918462;29;20031;-91
2021/09/08 04:32:55;;;;;;;12.38;8.18;;;;;;;6.83;86.78;91005.63;4918400;29;20113;-92
2021/09/08 04:35:20;;;;;;;15.95;9.13;;;;;;;6.80;86.14;91016.59;4934156;29;20032;-91
2021/09/08 04:37:46;;;;;;;14.68;8.63;;;;;;;6.78;86.10;91020.53;4920954;29;20024;-91
2021/09/08 04:40:12;;;;;;;14.55;8.82;;;;;;;6.74;86.72;91011.84;4925311;29;20034;-91
2021/09/08 04:42:37;;;;;;;19.77;8.93;;;;;;;6.91;87.37;91022.25;4925083;29;20037;-91
2021/09/08 04:45:03;;;;;;;13.25;8.52;;;;;;;6.92;87.33;91028.94;4941247;29;20027;-90
2021/09/08 04:47:28;;;;;;;16.70;9.35;;;;;;;6.80;87.31;91015.81;4941041;29;20031;-90
2021/09/08 04:49:54;;;;;;;16.67;9.18;;;;;;;6.78;87.31;91016.13;4941006;29;20467;-92
2021/09/08 04:52:19;;;;;;;20.95;11.27;;;;;;;6.86;88.42;91014.63;4956869;28;20034;-90
2021/09/08 04:54:44;;;;;;;15.13;9.40;;;;;;;6.99;88.90;91007.78;4940841;29;20027;-92
2021/09/08 04:57:10;;;;;;;17.70;10.20;;;;;;;7.19;90.01;91013.13;4940476;29;20476;-91
2021/09/08 04:59:35;;;;;;;16.77;10.52;;;;;;;7.22;90.07;91014.34;4940716;29;20027;-92
2021/09/08 05:02:01;;;;;;;16.00;10.77;;;;;;;7.21;90.03;91009.47;4956562;29;20383;-91
2021/09/08 05:04:26;;;;;;;18.40;9.77;;;;;;;7.14;88.40;91005.53;4956583;29;20031;-91
2021/09/08 05:06:52;;;;;;;15.43;9.35;;;;;;;7.19;88.27;91013.13;4924433;29;20502;-90
2021/09/08 05:09:17;;;;;;;14.63;9.10;;;;;;;7.20;87.46;91006.13;4956478;29;20447;-91
2021/09/08 05:11:43;;;;;;;13.90;8.68;;;;;;;7.31;87.25;91011.75;4940368;29;20031;-92
2021/09/08 05:14:09;;;;;;;14.70;9.60;;;;;;;7.15;87.24;91004.44;4940476;29;20034;-91
2021/09/08 05:16:34;;;;;;;16.30;8.55;;;;;;;7.28;87.47;91009.78;4924859;29;20085;-91
2021/09/08 05:19:00;;;;;;;19.02;9.18;;;;;;;7.22;87.81;91001.41;4956003;28;20031;-91
2021/09/08 05:21:25;;;;;;;16.58;9.50;;;;;;;7.17;87.21;90999.72;4924020;29;20034;-91
2021/09/08 05:23:51;;;;;;;13.88;9.45;;;;;;;7.13;87.70;91001.38;4956320;29;20038;-91
2021/09/08 05:26:16;;;;;;;14.23;9.63;;;;;;;7.17;87.73;91002.31;4940141;28;20498;-91
2021/09/08 05:28:42;;;;;;;18.15;9.98;;;;;;;7.19;88.44;90997.56;4924480;29;20499;-91
2021/09/08 05:31:07;;;;;;;16.80;10.43;;;;;;;7.27;87.54;91014.19;4924251;29;20027;-91
2021/09/08 05:33:33;;;;;;;20.17;10.35;;;;;;;7.44;88.62;91008.25;4955975;29;20031;-90
2021/09/08 05:35:59;;;;;;;16.10;9.80;;;;;;;7.57;88.51;91009.94;4940260;29;20027;-91
2021/09/08 05:38:24;;;;;;;17.30;10.05;;;;;;;7.59;88.81;91010.38;4939763;29;20472;-92
2021/09/08 05:40:50;;;;;;;18.48;10.18;;;;;;;7.61;89.00;91010.09;4924020;29;20027;-91
2021/09/08 05:43:15;;;;;;;16.48;11.02;;;;;;;7.64;89.56;91010.22;4939798;29;20074;-91
2021/09/08 05:45:41;;;;;;;16.35;10.68;;;;;;;7.76;89.23;91016.63;4957334;29;20023;-91
2021/09/08 05:48:06;;;;;;;18.52;10.88;;;;;;;7.82;88.96;91012.81;4943574;29;20071;-91
2021/09/08 05:50:32;;;;;;;16.52;10.40;;;;;;;7.87;88.63;91004.84;4945203;29;20476;-92
2021/09/08 05:52:57;;;;;;;15.98;10.57;;;;;;;8.04;88.55;91004.81;4960157;29;20037;-91
2021/09/08 05:55:22;;;;;;;16.58;10.15;;;;;;;8.07;88.18;91006.78;4958646;29;20050;-91
2021/09/08 05:57:48;;;;;;;17.80;10.18;;;;;;;8.15;87.82;91008.59;4943609;29;20475;-91
2021/09/08 06:00:14;;;;;;;17.48;10.05;;;;;;;8.28;88.30;91019.09;4959098;29;20410;-91
2021/09/08 06:02:39;;;;;;;18.08;10.27;;;;;;;8.35;88.60;91014.19;4941991;29;20054;-91
2021/09/08 06:05:05;;;;;;;19.48;11.15;;;;;;;8.31;88.84;91008.09;4942498;29;20019;-91
2021/09/08 06:07:30;;;;;;;19.35;10.20;;;;;;;8.41;88.71;90997.41;4926584;29;20062;-91
2021/09/08 06:09:56;;;;;;;17.00;10.35;;;;;;;8.45;88.35;91011.28;4930521;28;20035;-95
2021/09/08 06:12:21;;;;;;;15.90;10.10;;;;;;;8.65;88.60;91006.44;4964999;28;20082;-94
2021/09/08 06:14:47;;;;;;;16.10;10.30;;;;;;;8.71;88.83;91002.59;4980933;28;20023;-90
2021/09/08 06:17:12;;;;;;;15.55;10.10;;;;;;;8.77;88.45;91006.56;4928321;29;20027;-91
2021/09/08 06:19:38;;;;;;;19.38;10.30;;;;;;;8.85;88.49;91011.69;4943482;29;20042;-91
2021/09/08 06:22:04;;;;;;;20.20;10.93;;;;;;;8.93;88.77;91001.56;4928929;29;20019;-91
2021/09/08 06:24:29;;;;;;;21.48;11.00;;;;;;;9.01;88.03;90996.31;4960936;29;20487;-90
2021/09/08 06:26:55;;;;;;;21.80;10.40;;;;;;;9.17;87.56;90995.75;4927969;29;20034;-90
2021/09/08 06:29:23;;;;;;;17.90;10.13;;;;;;;9.27;87.63;90995.38;4942552;28;20075;-92
2021/09/08 06:31:49;;;;;;;23.08;10.88;;;;;;;9.34;87.67;90993.78;4926863;28;20051;-94
2021/09/08 06:34:14;;;;;;;18.90;10.25;;;;;;;9.42;87.49;90987.00;4937432;29;20039;-91
2021/09/08 06:36:40;;;;;;;16.58;9.82;;;;;;;9.51;87.50;90992.16;4959023;28;20032;-93
2021/09/08 06:39:06;;;;;;;16.20;9.63;;;;;;;9.63;87.32;90981.78;4943001;29;20038;-91
2021/09/08 06:41:31;;;;;;;15.75;10.38;;;;;;;9.66;87.39;90981.13;4943916;29;20023;-92
2021/09/08 06:43:57;;;;;;;18.85;10.48;;;;;;;9.76;86.80;90988.56;4929225;29;20102;-91
2021/09/08 06:46:22;;;;;;;14.70;9.35;;;;;;;9.88;86.87;90990.41;4926659;28;20030;-91
2021/09/08 06:48:48;;;;;;;13.55;9.05;;;;;;;9.99;86.74;90991.53;4945697;29;20078;-92
2021/09/08 06:51:13;;;;;;;18.08;8.73;;;;;;;10.06;86.23;90981.34;4928422;29;20047;-92
2021/09/08 06:53:38;;;;;;;16.42;9.38;;;;;;;10.14;86.55;90984.19;4924126;29;20074;-91
2021/09/08 06:56:05;;;;;;;18.85;9.80;;;;;;;10.26;86.84;90984.25;4956978;29;20035;-91
2021/09/08 06:58:31;;;;;;;18.50;10.20;;;;;;;10.38;86.21;90973.84;4924287;28;20031;-92
2021/09/08 07:00:56;;;;;;;16.58;9.75;;;;;;;10.53;85.38;90975.06;4940263;29;20514;-92
2021/09/08 07:03:22;;;;;;;21.60;9.02;;;;;;;10.61;84.91;90973.44;4923707;29;20033;-91
2021/09/08 07:05:47;;;;;;;17.23;9.98;;;;;;;10.70;84.97;90971.44;4923047;29;20049;-93
2021/09/08 07:08:14;;;;;;;14.27;8.93;;;;;;;10.82;84.31;90965.50;4924129;29;20475;-93
2021/09/08 07:10:40;;;;;;;19.67;9.13;;;;;;;11.10;83.03;90960.34;4940413;29;20406;-92
2021/09/08 07:13:06;;;;;;;14.48;8.80;;;;;;;11.12;83.25;90961.50;4925183;29;20023;-92
2021/09/08 07:15:31;;;;;;;17.85;9.20;;;;;;;11.29;84.45;90957.13;4959312;29;20050;-92
2021/09/08 07:17:57;;;;;;;14.10;8.52;;;;;;;11.40;83.70;90958.94;4928141;29;20249;-92
2021/09/08 07:20:23;;;;;;;15.15;9.00;;;;;;;11.59;82.67;90962.78;4928600;29;20031;-93
2021/09/08 07:22:49;;;;;;;13.70;8.55;;;;;;;11.64;82.59;90952.13;4928510;29;20023;-92
2021/09/08 07:25:14;;;;;;;13.43;8.15;;;;;;;11.73;81.96;90950.13;4939819;29;20027;-91
2021/09/08 07:27:40;;;;;;;13.15;8.50;;;;;;;11.83;81.56;90954.84;4940958;28;20102;-93
2021/09/08 07:30:06;;;;;;;17.38;9.23;;;;;;;11.99;81.72;90956.78;4939609;29;20023;-92
2021/09/08 07:32:31;;;;;;;14.30;9.18;;;;;;;12.07;82.80;90955.88;4924843;28;20034;-91
2021/09/08 07:34:58;;;;;;;15.25;9.90;;;;;;;12.21;84.80;90951.00;4924838;29;20027;-92
2021/09/08 07:37:24;;;;;;;16.17;9.75;;;;;;;12.47;85.29;90954.94;4925146;29;20019;-92
2021/09/08 07:40:21;;;;;;;13.38;8.65;;;;;;;12.81;80.59;90951.63;4924050;29;20475;-91
2021/09/08 07:42:47;;;;;;;14.43;9.82;;;;;;;12.91;82.24;90945.88;4941143;29;20023;-92
2021/09/08 07:45:12;;;;;;;17.58;10.30;;;;;;;13.08;83.85;90952.59;4941450;29;20605;-92
2021/09/08 07:47:37;;;;;;;36.38;12.48;;;;;;;13.32;83.44;90946.41;4912323;29;20404;-91
2021/09/08 07:50:03;;;;;;;16.20;9.90;;;;;;;13.44;80.96;90942.88;4905406;29;20361;-92
2021/09/08 07:52:29;;;;;;;15.85;10.15;;;;;;;13.67;76.44;90945.56;4921472;29;20028;-92
2021/09/08 07:54:54;;;;;;;19.27;10.52;;;;;;;13.85;79.09;90943.28;4931542;29;20082;-92
2021/09/08 07:57:20;;;;;;;19.63;10.00;;;;;;;14.29;75.11;90954.16;4968821;23;20027;-91
2021/09/08 08:00:05;;;;;;;18.80;10.60;;;;;;;14.61;73.28;90956.59;4940462;28;20045;-91
2021/09/08 08:02:30;;;;;;;15.73;10.07;;;;;;;14.69;75.87;90954.81;4954084;28;20166;-91
2021/09/08 08:04:56;;;;;;;17.42;10.40;;;;;;;14.80;71.12;90950.50;4937437;29;20031;-91
2021/09/08 08:07:21;;;;;;;15.38;10.18;;;;;;;14.92;69.52;90949.56;4940330;28;20033;-91
2021/09/08 08:09:47;;;;;;;16.63;9.93;;;;;;;15.06;69.79;90950.50;4956154;28;20033;-90
2021/09/08 08:12:12;;;;;;;18.85;10.85;;;;;;;15.03;69.06;90947.84;4942652;28;20029;-91
2021/09/08 08:14:38;;;;;;;16.30;10.40;;;;;;;15.10;68.57;90947.19;4960538;28;20034;-91
2021/09/08 08:17:04;;;;;;;16.77;9.48;;;;;;;15.14;69.65;90948.75;4959900;28;20023;-92
2021/09/08 08:19:29;;;;;;;16.48;10.35;;;;;;;15.22;68.66;90946.97;4943495;28;20039;-92
2021/09/08 08:21:55;;;;;;;18.55;10.02;;;;;;;15.33;68.42;90953.09;4925785;29;20019;-91
2021/09/08 08:24:20;;;;;;;16.63;9.57;;;;;;;15.54;67.59;90939.47;4924512;29;20058;-92
2021/09/08 08:26:45;;;;;;;15.05;10.40;;;;;;;15.59;70.31;90935.81;4925215;29;20023;-92
2021/09/08 08:29:11;;;;;;;18.10;9.50;;;;;;;15.73;68.81;90936.00;4924864;29;20030;-91
2021/09/08 08:31:36;;;;;;;14.77;9.95;;;;;;;15.94;68.98;90935.47;4924859;29;20023;-91
2021/09/08 08:34:02;;;;;;;13.80;9.05;;;;;;;16.16;68.12;90931.19;4942521;28;20387;-92
2021/09/08 08:36:27;;;;;;;15.73;9.32;;;;;;;16.38;67.56;90942.66;4935824;28;20486;-91
2021/09/08 08:38:53;;;;;;;13.30;8.80;;;;;;;16.59;67.03;90934.94;4933616;29;20023;-91
2021/09/08 08:41:20;;;;;;;15.35;9.77;;;;;;;16.68;65.09;90939.91;4932692;28;20534;-92
2021/09/08 08:43:46;;;;;;;17.80;9.57;;;;;;;16.78;65.72;90927.97;4929490;29;20495;-91
2021/09/08 08:46:11;;;;;;;15.32;9.38;;;;;;;16.90;66.21;90936.34;4940897;29;20097;-90
2021/09/08 08:48:37;;;;;;;16.63;8.38;;;;;;;17.12;63.84;90937.22;4924819;29;20078;-93
2021/09/08 08:51:02;;;;;;;14.63;9.25;;;;;;;17.10;63.94;90938.69;4925354;29;20027;-93
2021/09/08 08:53:28;;;;;;;15.98;9.45;;;;;;;17.20;67.63;90932.75;4925822;29;20023;-92
2021/09/08 08:55:53;;;;;;;14.15;8.38;;;;;;;17.32;65.45;90929.06;4925400;29;20074;-92
2021/09/08 08:58:19;;;;;;;15.52;8.93;;;;;;;17.37;63.61;90933.97;4924447;29;20035;-91
2021/09/08 09:00:44;;;;;;;14.73;9.13;;;;;;;17.40;64.17;90935.88;4924235;29;20034;-92
2021/09/08 09:03:38;;;;;;;15.55;9.43;;;;;;;17.52;64.05;90934.78;4924446;29;20507;-92
2021/09/08 09:06:03;;;;;;;13.77;8.43;;;;;;;17.65;62.81;90926.19;4956149;28;20023;-91
2021/09/08 09:08:35;;;;;;;13.60;9.38;;;;;;;17.59;63.30;90932.94;4923823;29;20039;-92
2021/09/08 09:11:01;;;;;;;12.55;8.60;;;;;;;17.64;64.23;90932.59;4924799;29;20023;-92
2021/09/08 09:13:33;;;;;;;18.42;8.77;;;;;;;17.79;63.50;90930.06;4924149;29;20078;-93
2021/09/08 09:16:09;;;;;;;13.25;8.57;;;;;;;17.85;62.05;90918.78;4924659;29;20031;-92
2021/09/08 09:18:38;;;;;;;17.48;8.95;;;;;;;17.95;62.61;90922.59;4925214;29;20095;-92
2021/09/08 09:21:08;;;;;;;13.80;8.13;;;;;;;17.98;60.81;90921.81;4940861;29;20077;-91
2021/09/08 09:24:01;;;;;;;13.90;8.60;;;;;;;18.21;62.78;90928.66;4925645;29;20034;-91
2021/09/08 09:26:28;;;;;;;15.80;8.85;;;;;;;18.29;62.87;90924.91;4939597;29;20444;-92
2021/09/08 09:28:54;;;;;;;13.35;8.38;;;;;;;18.44;63.64;90929.06;4941179;29;20040;-92
2021/09/08 09:31:23;;;;;;;12.93;8.70;;;;;;;18.58;61.94;90921.16;4925579;29;20033;-91
2021/09/08 09:33:53;;;;;;;13.23;8.77;;;;;;;18.61;59.20;90911.75;4926248;29;20053;-92
2021/09/08 09:36:30;;;;;;;13.13;8.23;;;;;;;18.72;60.81;90919.69;4926418;29;20030;-91
2021/09/08 09:38:56;;;;;;;13.73;7.85;;;;;;;18.87;59.50;90913.28;4927042;29;20037;-91
2021/09/08 09:41:33;;;;;;;11.10;7.47;;;;;;;18.97;58.12;90917.78;4935132;28;20023;-92
2021/09/08 09:44:06;;;;;;;11.10;7.60;;;;;;;19.05;59.27;90906.09;4961997;28;20090;-91
2021/09/08 09:46:31;;;;;;;11.20;7.28;;;;;;;19.15;56.30;90909.81;4946876;28;20563;-91
2021/09/08 09:48:57;;;;;;;12.10;7.50;;;;;;;19.31;60.12;90906.78;4944393;28;20030;-91
2021/09/08 09:51:23;;;;;;;10.55;6.88;;;;;;;19.32;56.62;90909.03;4943520;28;20515;-92
2021/09/08 09:53:49;;;;;;;11.57;7.28;;;;;;;19.59;59.87;90905.94;4944423;28;20110;-92
2021/09/08 09:56:14;;;;;;;15.32;8.38;;;;;;;19.57;57.83;90910.84;4943893;28;20394;-92
2021/09/08 09:58:39;;;;;;;12.15;8.32;;;;;;;19.64;58.75;90896.91;4943887;28;20398;-91
2021/09/08 10:01:05;;;;;;;11.13;7.95;;;;;;;19.63;56.17;90893.50;4943651;28;20031;-91
2021/09/08 10:03:31;;;;;;;13.70;8.68;;;;;;;19.82;59.71;90897.56;4944488;28;20023;-92
2021/09/08 10:05:57;;;;;;;11.82;8.02;;;;;;;20.00;59.30;90898.25;4944340;28;20027;-91
2021/09/08 10:08:23;;;;;;;12.68;7.78;;;;;;;20.16;58.79;90889.09;4977356;28;20030;-92
2021/09/08 10:10:49;;;;;;;11.95;6.68;;;;;;;20.20;56.04;90893.22;4959969;28;20636;-91
2021/09/08 10:13:21;;;;;;;10.32;6.63;;;;;;;20.42;56.54;90891.19;4940813;29;20031;-91
2021/09/08 10:15:50;;;;;;;13.63;7.50;;;;;;;20.35;54.16;90887.84;4942225;29;20109;-92
2021/09/08 10:18:16;;;;;;;11.63;7.13;;;;;;;20.53;56.89;90883.97;4941946;29;20031;-92
2021/09/08 10:20:44;;;;;;;11.30;7.05;;;;;;;20.58;55.48;90874.09;4941911;29;20043;-90
2021/09/08 10:23:12;;;;;;;10.13;6.68;;;;;;;20.59;53.18;90878.25;4941433;29;20023;-92
2021/09/08 10:25:44;;;;;;;10.77;6.93;;;;;;;20.71;55.98;90872.50;4959014;28;20039;-92
2021/09/08 10:28:14;;;;;;;12.32;6.78;;;;;;;20.62;51.87;90866.88;4957945;28;20051;-93
2021/09/08 10:30:42;;;;;;;10.88;6.85;;;;;;;20.67;53.67;90871.75;4941530;29;20027;-92
2021/09/08 10:33:25;;;;;;;11.27;7.28;;;;;;;20.91;57.04;90870.03;4943597;28;20043;-92
2021/09/08 10:35:51;;;;;;;10.80;7.15;;;;;;;20.86;54.45;90867.81;4939764;28;20035;-90
2021/09/08 10:38:18;;;;;;;10.93;7.10;;;;;;;20.82;51.93;90867.84;4973379;28;20027;-92
2021/09/08 10:40:44;;;;;;;10.00;7.28;;;;;;;21.01;54.84;90866.53;4945162;28;20035;-91
2021/09/08 10:43:10;;;;;;;11.27;7.07;;;;;;;21.04;53.27;90865.75;4945320;28;20030;-92
2021/09/08 10:45:35;;;;;;;10.63;7.00;;;;;;;21.20;54.21;90857.25;4944227;28;20027;-92
2021/09/08 10:48:02;;;;;;;11.20;7.10;;;;;;;21.16;50.86;90853.91;4944938;28;20026;-92
2021/09/08 10:50:45;;;;;;;10.77;7.35;;;;;;;21.31;55.47;90859.78;4944310;28;20038;-92
2021/09/08 10:53:16;;;;;;;8.70;6.53;;;;;;;21.38;52.26;90868.47;4933464;29;20118;-92
2021/09/08 10:55:45;;;;;;;10.90;6.90;;;;;;;21.27;51.29;90851.13;4957295;28;20023;-93
2021/09/08 10:58:10;;;;;;;10.70;7.47;;;;;;;21.45;53.68;90852.50;4921425;29;20372;-93
2021/09/08 11:00:40;;;;;;;11.32;7.40;;;;;;;21.41;51.68;90849.13;4919651;29;20050;-93
2021/09/08 11:03:25;;;;;;;13.48;7.55;;;;;;;21.36;50.74;90854.84;4933834;29;20047;-93
2021/09/08 11:05:58;;;;;;;11.27;7.40;;;;;;;21.54;53.84;90859.19;4919349;29;20034;-93
2021/09/08 11:08:24;;;;;;;10.88;7.05;;;;;;;21.75;53.92;90850.25;4934743;29;20118;-93
2021/09/08 11:10:49;;;;;;;9.88;7.35;;;;;;;21.76;52.13;90841.88;4935029;29;20037;-93
2021/09/08 11:13:25;;;;;;;13.43;7.90;;;;;;;21.95;52.77;90835.97;4919447;29;20399;-93
2021/09/08 11:15:51;;;;;;;12.23;7.00;;;;;;;21.94;53.03;90839.78;4935164;28;20035;-93
2021/09/08 11:18:16;;;;;;;8.23;5.82;;;;;;;22.21;50.46;90848.91;4934831;28;20485;-93
2021/09/08 11:20:42;;;;;;;10.20;7.38;;;;;;;22.29;52.30;90842.34;4919567;29;20440;-93
2021/09/08 11:23:09;;;;;;;9.68;6.55;;;;;;;22.45;50.06;90839.06;4934917;29;20019;-93
2021/09/08 11:25:39;;;;;;;8.25;6.70;;;;;;;22.53;51.34;90841.22;4919187;29;20054;-93